Terminal Aerodrome Forecast
Issued by NWS Wilmington, OH

Current Version | Previous Version | Graphics & Text | Print | Product List | Glossary On
Versions: 1 2 3 4 5 6 7 8 9 10 11 12 13 14 15 16 17 18 19 20 21 22 23 24 25 26 27 28 29 30
464
FTUS41 KILN 152038 AAA
TAFILN
TAF AMD
KILN 152038Z 1521/1618 07005KT 2SM BR OVC004
     FM152200 07005KT 4SM BR BKN004
     FM160000 08004KT P6SM VCSH SCT006 OVC040
     FM160400 08004KT 2SM -FZDZ BR VCSH OVC012
     FM161300 10005KT 5SM -DZ BR OVC006
     FM161600 12005KT P6SM OVC006=

USA.gov is the U.S. government's official web portal to all federal, state and local government web resources and services.